Pullman Moscow Regional Airport
KPUW : now visible

Airfield :











YOU CAN JOIN US ON...

 
LOGIN :

Register | Disclaimer

   EN    FR    IT 

 









Legend :    VFR   Marginal VFR   IFR   Intensive IFR   Very Intensive IFR
Visi :
Ceiling :
>= 8 km
>= 3000ft
5 to 8 km
1000 to 3000 ft
1500m to 5 km
500 to 1000 ft
800 to 1500m
200 to 500 ft
< 800m
< 200 ft
Symbols :   Thunderstorms  Fog  Heavy snow  Heavy precipitations  Wind > 20 kt






- Airport Elevation : 2556 ft
- IATA code : PUW


KPUW - Pullman Moscow Regional

CURRENT METAR :
  • 310653Z AUTO 27009G18KT 10SM FEW042 11/08 A2975 RMK AO2 SLP062 T01110083

EXPIRED METARs :
  • 310553Z AUTO 27012G19KT 10SM CLR 12/10 A2973 RMK AO2 SLP054 60025 T01220100 10294 20122 51027
  • 310453Z AUTO 27013KT 10SM SCT021 13/11 A2970 RMK AO2 PK WND 27027/0354 SLP046 T01330111

TAF KPUW
Valid from the 31 at 06:00 until the 01 at 06:00 UTC


310525Z 3106/0106 26015G24KT P6SM -SHRA SCT030 OVC060
FM311200 23014G28KT 6SM -RA BR OVC020
FM311800 25019G26KT P6SM BKN100
FM312000 25018G25KT P6SM SCT100
FM010300 20006KT P6SM SKC
KZSE FIR / North America



MET'MAP, your aeronautical weather chart ! - Copyright ORBIFLY December 2007 - Disclaimer

ORBIFLY MET'MAP TEAM :

Programming & Development : Alexandra Zaïnal
Concept & original design : Baudouin d'Aumeries
Assistance for programming : Marc-Olivier Méhu
Technical & hardware support : Manuel Goepfert

Contact : metmap@orbifly.com




SOURCES & CREDITS :

   NOAA       Earth
Advisory